Aeroporto :
LOGIN :

Iscrizione | Disclaimer

   EN    FR    IT 

 










Sommario :    VFR   VFR Marginale   IFR   IFR Intensivo   IFR Molto Intensivo
Visibilità : 
Base nubi : 
>= 8 km
>= 3000ft
5 / 8 km
1000 / 3000 ft
1500m / 5 km
500 / 1000 ft
800 / 1500m
200 / 500 ft
< 800m
< 200 ft
Simboli :   Temporali  Nebbia  Neve Forte  Precipitazioni Forti  Vento > 20 kt
SIGMETs :   Varie  Temporali  Ghiacco  Turbolenza  Onda orograficha  Ceneri Vulcaniche






- Altitudine del aeroporto : 144 ft
- Codice IATA : PGF


LFMP - Perpignan

ULTIMO METAR :
  • 310730Z AUTO VRB02KT 9999 SCT015 BKN025 21/17 Q1014 BECMG 11012KT

METARs OBSOLETI :
  • 310700Z AUTO VRB02KT 9999 FEW013 20/16 Q1014 NOSIG
  • 310630Z AUTO VRB03KT 9999 BKN011 OVC022 18/16 Q1014 BECMG NSC
  • 310600Z AUTO VRB03KT 9999 FEW011 OVC019 17/16 Q1014 TEMPO BKN014
  • 310530Z AUTO 34003KT 9999 BKN014 OVC021 16/15 Q1013 BECMG NSC
  • 310500Z AUTO 25001KT 9999 OVC017 15/14 Q1014 TEMPO BKN014
  • 310430Z AUTO 23005KT 9999 BKN021 15/14 Q1014 TEMPO BKN014

TAF TAF LFMP
Valido dal 31 a 03 ore il 01 a 03 ore UTC


310200Z 3103/0103 24005KT CAVOK
TEMPO 3103/3107 BKN014
BECMG 3109/3111 11012KT BKN025
BECMG 3119/3121 VRB03KT
ATIS : +33 4 68 63 75 12



MetMap, La meteo Aeronautica in un colpo d'occhio ! - Copyright ORBIFLY Dicembre 2007 - Disclaimer

ORBIFLY MET'MAP TEAM :

Programmazione e sviluppo : Alexandra Zaïnal
Concezione : Baudouin d'Aumeries
Aiuto per la programmazione : Marc-Olivier Méhu
Supporto tecnico e logistico : Manuel Goepfert
Aiuto per la traduzione : Arnaldo La Scala

Contatto : metmap@orbifly.com




FONTI E CREDITI :

   NOAA